Time;durP1;ratioP1;P1;durP2;ratioP2;P2;SDS_P1;SDS_P2;PMS_P1;PMS_P2;Temp;Humidity;BMP_temperature;BMP_pressure;BME280_temperature;BME280_humidity;BME280_pressure;Samples;Min_cycle;Max_cycle;Signal;HPM_P1;HPM_P2
2024/02/21 00:00:20;;;;;;;;;;;;;;;;;;5047641;28;20483;-64
2024/02/21 00:02:47;;;;;;;;;;;;;;;;;;5047321;28;19984;-64
2024/02/21 00:05:14;;;;;;;;;;;;;;;;;;5048610;28;19928;-65
2024/02/21 00:07:41;;;;;;;;;;;;;;;;;;5048102;28;19936;-64
2024/02/21 00:10:08;;;;;;;;;;;;;;;;;;5047561;28;20019;-65
2024/02/21 00:12:35;;;;;;;;;;;;;;;;;;5046174;28;20402;-65
2024/02/21 00:15:02;;;;;;;;;;;;;;;;;;5047131;28;20024;-65
2024/02/21 00:17:29;;;;;;;;;;;;;;;;;;5047943;28;19990;-65
2024/02/21 00:19:56;;;;;;;;;;;;;;;;;;5047577;28;19933;-65
2024/02/21 00:22:24;;;;;;;;;;;;;;;;;;5049252;28;20303;-65
2024/02/21 00:24:51;;;;;;;;;;;;;;;;;;5048313;28;19935;-64
2024/02/21 00:27:18;;;;;;;;;;;;;;;;;;5047679;28;20482;-65
2024/02/21 00:29:45;;;;;;;;;;;;;;;;;;5046901;28;19932;-64
2024/02/21 00:32:12;;;;;;;;;;;;;;;;;;5048102;28;19951;-63
2024/02/21 00:34:39;;;;;;;;;;;;;;;;;;5046852;28;20055;-63
2024/02/21 00:37:06;;;;;;;;;;;;;;;;;;5045484;28;20399;-65
2024/02/21 00:39:33;;;;;;;;;;;;;;;;;;5047297;28;19964;-64
2024/02/21 00:42:01;;;;;;;;;;;;;;;;;;5046189;28;20027;-64
2024/02/21 00:44:28;;;;;;;;;;;;;;;;;;5045126;28;20376;-64
2024/02/21 00:46:55;;;;;;;;;;;;;;;;;;5047436;28;19929;-65
2024/02/21 00:49:22;;;;;;;;;;;;;;;;;;5047931;28;20014;-65
2024/02/21 00:51:49;;;;;;;;;;;;;;;;;;5044870;28;20384;-64
2024/02/21 00:54:16;;;;;;;;;;;;;;;;;;5047258;28;20015;-64
2024/02/21 00:56:43;;;;;;;;;;;;;;;;;;5047457;28;19928;-64
2024/02/21 00:59:10;;;;;;;;;;;;;;;;;;5046864;28;19929;-65
2024/02/21 01:01:37;;;;;;;;;;;;;;;;;;5046788;28;20473;-64
2024/02/21 01:04:04;;;;;;;;;;;;;;;;;;5048904;28;20023;-63
2024/02/21 01:06:31;;;;;;;;;;;;;;;;;;5045533;28;20040;-64
2024/02/21 01:08:58;;;;;;;;;;;;;;;;;;5046915;28;20055;-64
2024/02/21 01:11:25;;;;;;;;;;;;;;;;;;5046366;28;20047;-63
2024/02/21 01:13:52;;;;;;;;;;;;;;;;;;5047505;28;20485;-63
2024/02/21 01:16:19;;;;;;;;;;;;;;;;;;5046603;28;19929;-65
2024/02/21 01:18:46;;;;;;;;;;;;;;;;;;5046266;28;20019;-65
2024/02/21 01:21:13;;;;;;;;;;;;;;;;;;5046702;28;20019;-65
2024/02/21 01:23:40;;;;;;;;;;;;;;;;;;5049100;28;20032;-64
2024/02/21 01:26:08;;;;;;;;;;;;;;;;;;5047007;28;20015;-64
2024/02/21 01:28:35;;;;;;;;;;;;;;;;;;5047640;28;19929;-65
2024/02/21 01:31:03;;;;;;;;;;;;;;;;;;5045443;28;20467;-64
2024/02/21 01:33:34;;;;;;;;;;;;;;;;;;5046134;28;19932;-65
2024/02/21 01:36:01;;;;;;;;;;;;;;;;;;5045572;28;19938;-65
2024/02/21 01:38:28;;;;;;;;;;;;;;;;;;5048369;28;19981;-64
2024/02/21 01:40:56;;;;;;;;;;;;;;;;;;5048828;28;19929;-64
2024/02/21 01:43:23;;;;;;;;;;;;;;;;;;5048353;28;20016;-64
2024/02/21 01:45:50;;;;;;;;;;;;;;;;;;5045396;28;20024;-64
2024/02/21 01:48:17;;;;;;;;;;;;;;;;;;5047371;28;19935;-64
2024/02/21 01:50:44;;;;;;;;;;;;;;;;;;5046798;28;19928;-64
2024/02/21 01:53:17;;;;;;;;;;;;;;;;;;5046088;28;19939;-63
2024/02/21 01:55:44;;;;;;;;;;;;;;;;;;5047686;28;19929;-63
2024/02/21 01:58:11;;;;;;;;;;;;;;;;;;5047648;28;20400;-65
2024/02/21 02:00:38;;;;;;;;;;;;;;;;;;5042150;28;19972;-64
2024/02/21 02:03:06;;;;;;;;;;;;;;;;;;5048127;28;19929;-64
2024/02/21 02:05:33;;;;;;;;;;;;;;;;;;5048599;28;19929;-64
2024/02/21 02:08:00;;;;;;;;;;;;;;;;;;5047449;28;20015;-64
2024/02/21 02:10:27;;;;;;;;;;;;;;;;;;5052735;28;19928;-63
2024/02/21 02:12:54;;;;;;;;;;;;;;;;;;5052134;28;19929;-65
2024/02/21 02:15:21;;;;;;;;;;;;;;;;;;5047836;28;20055;-64
2024/02/21 02:17:48;;;;;;;;;;;;;;;;;;5047248;28;20023;-64
2024/02/21 02:20:16;;;;;;;;;;;;;;;;;;5047447;28;19972;-64
2024/02/21 02:22:43;;;;;;;;;;;;;;;;;;5047733;28;19928;-64
2024/02/21 02:25:10;;;;;;;;;;;;;;;;;;5048112;28;20451;-64
2024/02/21 02:27:37;;;;;;;;;;;;;;;;;;5042835;28;19971;-63
2024/02/21 02:30:04;;;;;;;;;;;;;;;;;;5052947;28;20396;-63
2024/02/21 02:32:31;;;;;;;;;;;;;;;;;;5037793;28;20454;-63
2024/02/21 02:34:58;;;;;;;;;;;;;;;;;;5051347;28;20023;-65
2024/02/21 02:37:25;;;;;;;;;;;;;;;;;;5047590;28;19976;-64
2024/02/21 02:39:52;;;;;;;;;;;;;;;;;;5048222;28;20035;-64
2024/02/21 02:42:19;;;;;;;;;;;;;;;;;;5048135;28;20031;-64
2024/02/21 02:44:46;;;;;;;;;;;;;;;;;;5046404;28;20019;-64
2024/02/21 02:47:13;;;;;;;;;;;;;;;;;;5048511;28;20027;-65
2024/02/21 02:49:41;;;;;;;;;;;;;;;;;;5047547;28;20293;-64
2024/02/21 02:52:08;;;;;;;;;;;;;;;;;;5046035;28;19929;-64
2024/02/21 02:54:35;;;;;;;;;;;;;;;;;;5047739;28;19935;-64
2024/02/21 02:57:03;;;;;;;;;;;;;;;;;;5046910;28;19936;-64
2024/02/21 02:59:30;;;;;;;;;;;;;;;;;;5048946;28;20391;-64
2024/02/21 03:01:57;;;;;;;;;;;;;;;;;;5048797;28;19973;-64
2024/02/21 03:04:24;;;;;;;;;;;;;;;;;;5054029;28;20032;-64
2024/02/21 03:06:51;;;;;;;;;;;;;;;;;;5055369;28;19932;-65
2024/02/21 03:09:18;;;;;;;;;;;;;;;;;;5051110;28;19937;-64
2024/02/21 03:11:45;;;;;;;;;;;;;;;;;;5051263;28;20147;-64
2024/02/21 03:14:12;;;;;;;;;;;;;;;;;;5050303;28;19976;-64
2024/02/21 03:16:39;;;;;;;;;;;;;;;;;;5050468;28;20046;-64
2024/02/21 03:19:07;;;;;;;;;;;;;;;;;;5049570;28;20024;-64
2024/02/21 03:21:34;;;;;;;;;;;;;;;;;;5053709;28;19929;-64
2024/02/21 03:24:00;;;;;;;;;;;;;;;;;;5051211;28;20024;-64
2024/02/21 03:26:27;;;;;;;;;;;;;;;;;;5051007;28;20305;-64
2024/02/21 03:28:54;;;;;;;;;;;;;;;;;;5049377;28;20473;-63
2024/02/21 03:31:21;;;;;;;;;;;;;;;;;;5050415;28;19933;-64
2024/02/21 03:33:48;;;;;;;;;;;;;;;;;;5049642;28;20022;-64
2024/02/21 03:36:15;;;;;;;;;;;;;;;;;;5047027;28;19928;-64
2024/02/21 03:38:43;;;;;;;;;;;;;;;;;;5045598;28;20363;-65
2024/02/21 03:41:10;;;;;;;;;;;;;;;;;;5050004;28;19978;-64
2024/02/21 03:43:37;;;;;;;;;;;;;;;;;;5050471;28;19929;-64
2024/02/21 03:46:04;;;;;;;;;;;;;;;;;;5050733;28;20022;-64
2024/02/21 03:48:31;;;;;;;;;;;;;;;;;;5049910;28;19964;-64
2024/02/21 03:50:58;;;;;;;;;;;;;;;;;;5049216;28;20007;-63
2024/02/21 03:53:25;;;;;;;;;;;;;;;;;;5049379;28;19983;-63
2024/02/21 03:55:52;;;;;;;;;;;;;;;;;;5048621;28;20403;-64
2024/02/21 03:58:19;;;;;;;;;;;;;;;;;;5050072;28;19929;-63
2024/02/21 04:00:46;;;;;;;;;;;;;;;;;;5049577;28;19929;-64
2024/02/21 04:03:13;;;;;;;;;;;;;;;;;;5049218;28;20023;-64
2024/02/21 04:05:40;;;;;;;;;;;;;;;;;;5050076;28;20471;-64
2024/02/21 04:08:07;;;;;;;;;;;;;;;;;;5048032;28;20011;-64
2024/02/21 04:10:35;;;;;;;;;;;;;;;;;;5042845;28;20011;-64
2024/02/21 04:13:02;;;;;;;;;;;;;;;;;;5049050;28;19929;-64
2024/02/21 04:15:29;;;;;;;;;;;;;;;;;;5049360;28;19929;-63
2024/02/21 04:17:56;;;;;;;;;;;;;;;;;;5050073;28;19975;-64
2024/02/21 04:20:23;;;;;;;;;;;;;;;;;;5049019;28;20027;-64
2024/02/21 04:22:50;;;;;;;;;;;;;;;;;;5040769;28;20443;-64
2024/02/21 04:25:17;;;;;;;;;;;;;;;;;;5047955;28;20019;-64
2024/02/21 04:27:46;;;;;;;;;;;;;;;;;;5049102;28;20529;-64
2024/02/21 04:30:13;;;;;;;;;;;;;;;;;;5059114;28;20043;-64
2024/02/21 04:32:40;;;;;;;;;;;;;;;;;;5048059;28;19929;-63
2024/02/21 04:35:08;;;;;;;;;;;;;;;;;;5047763;28;20006;-64
2024/02/21 04:37:35;;;;;;;;;;;;;;;;;;5039768;28;20299;-64
2024/02/21 04:40:02;;;;;;;;;;;;;;;;;;5046607;28;19995;-64
2024/02/21 04:42:29;;;;;;;;;;;;;;;;;;5047408;28;19928;-64
2024/02/21 04:44:56;;;;;;;;;;;;;;;;;;5049479;28;20010;-64
2024/02/21 04:47:23;;;;;;;;;;;;;;;;;;5051302;28;20299;-64
2024/02/21 04:49:50;;;;;;;;;;;;;;;;;;5047772;28;19929;-64
2024/02/21 04:52:17;;;;;;;;;;;;;;;;;;5046517;28;21895;-63
2024/02/21 04:54:44;;;;;;;;;;;;;;;;;;5048727;28;20346;-64
2024/02/21 04:57:16;;;;;;;;;;;;;;;;;;5049437;28;19933;-63
2024/02/21 04:59:43;;;;;;;;;;;;;;;;;;5048118;28;19935;-63
2024/02/21 05:02:10;;;;;;;;;;;;;;;;;;5050767;28;19967;-65
2024/02/21 05:04:38;;;;;;;;;;;;;;;;;;5050749;28;20293;-65
2024/02/21 05:07:05;;;;;;;;;;;;;;;;;;5048303;28;19940;-65
2024/02/21 05:09:32;;;;;;;;;;;;;;;;;;5048422;28;19968;-65
2024/02/21 05:11:59;;;;;;;;;;;;;;;;;;5048343;28;20016;-64
2024/02/21 05:14:27;;;;;;;;;;;;;;;;;;5048669;28;19928;-64
2024/02/21 05:16:54;;;;;;;;;;;;;;;;;;5043910;28;20384;-64
2024/02/21 05:19:21;;;;;;;;;;;;;;;;;;5050317;28;19968;-63
2024/02/21 05:21:48;;;;;;;;;;;;;;;;;;5040679;28;19971;-63
2024/02/21 05:24:15;;;;;;;;;;;;;;;;;;5044983;28;19933;-64
2024/02/21 05:26:42;;;;;;;;;;;;;;;;;;5048115;28;19976;-64
2024/02/21 05:29:09;;;;;;;;;;;;;;;;;;5048369;28;19928;-63
2024/02/21 05:31:36;;;;;;;;;;;;;;;;;;5047230;28;19929;-64
2024/02/21 05:34:04;;;;;;;;;;;;;;;;;;5043382;28;19928;-65
2024/02/21 05:36:31;;;;;;;;;;;;;;;;;;5048422;28;20459;-64
2024/02/21 05:38:58;;;;;;;;;;;;;;;;;;5048339;28;20411;-64
2024/02/21 05:41:25;;;;;;;;;;;;;;;;;;5047218;28;19972;-64
2024/02/21 05:43:52;;;;;;;;;;;;;;;;;;5048317;28;19960;-64
2024/02/21 05:46:19;;;;;;;;;;;;;;;;;;5048102;28;19933;-64
2024/02/21 05:48:46;;;;;;;;;;;;;;;;;;5046347;28;19937;-64
2024/02/21 05:51:13;;;;;;;;;;;;;;;;;;5049351;28;19928;-65
2024/02/21 05:53:40;;;;;;;;;;;;;;;;;;5045988;28;20377;-64
2024/02/21 05:56:07;;;;;;;;;;;;;;;;;;5048629;28;19932;-63
2024/02/21 05:58:34;;;;;;;;;;;;;;;;;;5047969;28;20825;-64
2024/02/21 06:01:03;;;;;;;;;;;;;;;;;;5047464;28;20015;-65
2024/02/21 06:03:30;;;;;;;;;;;;;;;;;;5048380;28;19928;-65
2024/02/21 06:05:57;;;;;;;;;;;;;;;;;;5047774;28;19975;-63
2024/02/21 06:08:24;;;;;;;;;;;;;;;;;;5044032;28;20352;-65
2024/02/21 06:10:54;;;;;;;;;;;;;;;;;;5048578;28;19936;-63
2024/02/21 06:13:21;;;;;;;;;;;;;;;;;;5053657;28;19932;-64
2024/02/21 06:15:49;;;;;;;;;;;;;;;;;;5050297;28;19928;-64
2024/02/21 06:18:16;;;;;;;;;;;;;;;;;;5048621;28;19929;-64
2024/02/21 06:20:43;;;;;;;;;;;;;;;;;;5046895;28;19929;-64
2024/02/21 06:23:10;;;;;;;;;;;;;;;;;;5047440;28;19929;-63
2024/02/21 06:25:37;;;;;;;;;;;;;;;;;;5043573;28;20011;-64
2024/02/21 06:28:04;;;;;;;;;;;;;;;;;;5046004;28;19933;-63
2024/02/21 06:30:31;;;;;;;;;;;;;;;;;;5044978;28;19967;-64
2024/02/21 06:32:59;;;;;;;;;;;;;;;;;;5041380;28;20060;-64
2024/02/21 06:35:26;;;;;;;;;;;;;;;;;;5051065;28;20285;-65
2024/02/21 06:37:53;;;;;;;;;;;;;;;;;;5049509;28;20449;-64
2024/02/21 06:40:20;;;;;;;;;;;;;;;;;;5050641;28;19968;-64
2024/02/21 06:42:47;;;;;;;;;;;;;;;;;;5046246;28;19939;-63
2024/02/21 06:45:14;;;;;;;;;;;;;;;;;;5049513;28;20529;-65
2024/02/21 06:47:41;;;;;;;;;;;;;;;;;;5046830;28;19928;-65
2024/02/21 06:50:09;;;;;;;;;;;;;;;;;;5046648;28;20438;-65
2024/02/21 06:52:36;;;;;;;;;;;;;;;;;;5048062;28;19936;-64
2024/02/21 06:55:03;;;;;;;;;;;;;;;;;;5036135;28;20424;-64
2024/02/21 06:57:30;;;;;;;;;;;;;;;;;;5038156;28;20019;-64
2024/02/21 06:59:57;;;;;;;;;;;;;;;;;;5039155;28;19936;-64
2024/02/21 07:02:24;;;;;;;;;;;;;;;;;;5041907;28;20385;-64
2024/02/21 07:04:51;;;;;;;;;;;;;;;;;;5047069;28;20019;-64
2024/02/21 07:07:18;;;;;;;;;;;;;;;;;;5046791;28;19925;-64
2024/02/21 07:09:48;;;;;;;;;;;;;;;;;;5053265;28;20019;-64
2024/02/21 07:12:15;;;;;;;;;;;;;;;;;;5043913;28;19933;-65
2024/02/21 07:14:42;;;;;;;;;;;;;;;;;;5037485;28;20020;-65
2024/02/21 07:17:09;;;;;;;;;;;;;;;;;;5047854;28;19929;-65
2024/02/21 07:19:36;;;;;;;;;;;;;;;;;;5049474;28;20015;-65
2024/02/21 07:22:03;;;;;;;;;;;;;;;;;;5046996;28;20636;-65
2024/02/21 07:24:31;;;;;;;;;;;;;;;;;;5047294;28;19956;-65
2024/02/21 07:27:04;;;;;;;;;;;;;;;;;;5045343;28;20028;-65
2024/02/21 07:29:31;;;;;;;;;;;;;;;;;;5044570;28;20328;-64
2024/02/21 07:31:58;;;;;;;;;;;;;;;;;;5048875;28;19928;-64
2024/02/21 07:34:25;;;;;;;;;;;;;;;;;;5044862;28;19928;-64
2024/02/21 07:36:52;;;;;;;;;;;;;;;;;;5042863;28;19928;-64
2024/02/21 07:39:19;;;;;;;;;;;;;;;;;;5050078;28;20023;-65
2024/02/21 07:41:47;;;;;;;;;;;;;;;;;;5042684;28;20300;-64
2024/02/21 07:44:14;;;;;;;;;;;;;;;;;;5046524;28;19939;-65
2024/02/21 07:46:41;;;;;;;;;;;;;;;;;;5045254;28;20336;-70
2024/02/21 07:49:09;;;;;;;;;;;;;;;;;;5047709;28;20517;-70
2024/02/21 07:51:36;;;;;;;;;;;;;;;;;;5043645;28;20214;-70
2024/02/21 07:54:04;;;;;;;;;;;;;;;;;;5040366;28;20384;-70
2024/02/21 07:56:31;;;;;;;;;;;;;;;;;;5042640;28;20678;-70
2024/02/21 07:58:58;;;;;;;;;;;;;;;;;;5040408;28;19933;-70
2024/02/21 08:01:25;;;;;;;;;;;;;;;;;;5044106;28;20024;-70
2024/02/21 08:03:52;;;;;;;;;;;;;;;;;;5031878;28;19951;-70
2024/02/21 08:06:19;;;;;;;;;;;;;;;;;;5043721;28;19979;-70
2024/02/21 08:08:46;;;;;;;;;;;;;;;;;;5038478;28;19928;-70
2024/02/21 08:11:16;;;;;;;;;;;;;;;;;;5035601;28;19990;-70
2024/02/21 08:13:43;;;;;;;;;;;;;;;;;;5038545;28;19933;-71
2024/02/21 08:16:10;;;;;;;;;;;;;;;;;;5040830;28;20024;-70
2024/02/21 08:18:38;;;;;;;;;;;;;;;;;;5037615;28;20043;-71
2024/02/21 08:21:05;;;;;;;;;;;;;;;;;;5038909;28;20397;-70
2024/02/21 08:23:32;;;;;;;;;;;;;;;;;;5039651;28;19937;-72
2024/02/21 08:25:59;;;;;;;;;;;;;;;;;;5038663;28;19935;-71
2024/02/21 08:28:25;;;;;;;;;;;;;;;;;;5036164;28;19933;-72
2024/02/21 08:30:52;;;;;;;;;;;;;;;;;;5032472;28;19929;-71
2024/02/21 08:33:24;;;;;;;;;;;;;;;;;;5037164;28;20299;-71
2024/02/21 08:35:51;;;;;;;;;;;;;;;;;;5037891;28;19928;-71
2024/02/21 08:38:18;;;;;;;;;;;;;;;;;;5055596;28;19929;-71
2024/02/21 08:40:45;;;;;;;;;;;;;;;;;;5050639;28;19975;-71
2024/02/21 08:43:12;;;;;;;;;;;;;;;;;;5047958;28;19977;-71
2024/02/21 08:45:39;;;;;;;;;;;;;;;;;;5046666;28;20028;-71
2024/02/21 08:48:06;;;;;;;;;;;;;;;;;;5044388;28;19937;-70
2024/02/21 08:50:33;;;;;;;;;;;;;;;;;;5046454;28;20446;-70
2024/02/21 08:53:01;;;;;;;;;;;;;;;;;;5049489;28;20072;-70
2024/02/21 08:55:28;;;;;;;;;;;;;;;;;;5043947;28;19933;-71
2024/02/21 08:57:55;;;;;;;;;;;;;;;;;;5035868;28;19969;-69
2024/02/21 09:00:26;;;;;;;;;;;;;;;;;;5044635;28;20374;-77
2024/02/21 09:02:55;;;;;;;;;;;;;;;;;;5044871;28;19928;-78
2024/02/21 09:05:22;;;;;;;;;;;;;;;;;;5045970;28;19974;-77
2024/02/21 09:07:49;;;;;;;;;;;;;;;;;;5047405;28;19935;-76
2024/02/21 09:10:16;;;;;;;;;;;;;;;;;;5057656;28;20263;-77
2024/02/21 09:12:43;;;;;;;;;;;;;;;;;;5050550;28;19935;-78
2024/02/21 09:15:10;;;;;;;;;;;;;;;;;;5042129;28;20318;-77
2024/02/21 09:17:39;;;;;;;;;;;;;;;;;;5048369;28;19929;-74
2024/02/21 09:20:06;;;;;;;;;;;;;;;;;;5038658;28;19933;-71
2024/02/21 09:22:34;;;;;;;;;;;;;;;;;;5039424;28;20024;-71
2024/02/21 09:25:01;;;;;;;;;;;;;;;;;;5044689;28;19935;-71
2024/02/21 09:27:29;;;;;;;;;;;;;;;;;;5032370;28;19936;-71
2024/02/21 09:29:56;;;;;;;;;;;;;;;;;;5049661;28;19928;-71
2024/02/21 09:32:23;;;;;;;;;;;;;;;;;;5038357;28;20043;-68
2024/02/21 09:34:50;;;;;;;;;;;;;;;;;;5040019;28;19928;-71
2024/02/21 09:37:17;;;;;;;;;;;;;;;;;;5039145;28;20023;-71
2024/02/21 09:39:44;;;;;;;;;;;;;;;;;;5043750;28;20311;-70
2024/02/21 09:42:11;;;;;;;;;;;;;;;;;;5046358;28;19929;-70
2024/02/21 09:44:38;;;;;;;;;;;;;;;;;;5042165;28;19925;-71
2024/02/21 09:47:05;;;;;;;;;;;;;;;;;;5051493;28;20032;-70
2024/02/21 09:49:33;;;;;;;;;;;;;;;;;;5046890;28;20027;-71
2024/02/21 09:52:00;;;;;;;;;;;;;;;;;;5043943;28;19983;-71
2024/02/21 09:54:27;;;;;;;;;;;;;;;;;;5045920;28;19933;-71
2024/02/21 09:56:54;;;;;;;;;;;;;;;;;;5046365;28;20094;-71
2024/02/21 09:59:21;;;;;;;;;;;;;;;;;;5046950;28;20019;-71
2024/02/21 10:01:50;;;;;;;;;;;;;;;;;;5045176;28;19929;-71
2024/02/21 10:04:18;;;;;;;;;;;;;;;;;;5045645;28;19928;-71
2024/02/21 10:06:45;;;;;;;;;;;;;;;;;;5043830;28;19940;-71
2024/02/21 10:09:12;;;;;;;;;;;;;;;;;;5049405;28;19929;-71
2024/02/21 10:11:39;;;;;;;;;;;;;;;;;;5061333;28;20031;-71
2024/02/21 10:14:06;;;;;;;;;;;;;;;;;;5040381;28;19933;-71
2024/02/21 10:16:33;;;;;;;;;;;;;;;;;;5051997;28;20091;-71
2024/02/21 10:19:00;;;;;;;;;;;;;;;;;;5046731;28;19933;-71
2024/02/21 10:21:27;;;;;;;;;;;;;;;;;;5050787;28;20019;-71
2024/02/21 10:23:54;;;;;;;;;;;;;;;;;;5047814;28;20318;-70
2024/02/21 10:26:21;;;;;;;;;;;;;;;;;;5049830;28;19935;-72
2024/02/21 10:28:51;;;;;;;;;;;;;;;;;;5050588;28;19933;-70
2024/02/21 10:31:18;;;;;;;;;;;;;;;;;;5051758;28;19935;-70
2024/02/21 10:33:45;;;;;;;;;;;;;;;;;;5049329;28;19939;-70
2024/02/21 10:36:12;;;;;;;;;;;;;;;;;;5049835;28;19929;-70
2024/02/21 10:38:39;;;;;;;;;;;;;;;;;;5047642;28;20020;-69
2024/02/21 10:41:06;;;;;;;;;;;;;;;;;;5049950;28;20412;-71
2024/02/21 10:43:33;;;;;;;;;;;;;;;;;;5047248;28;20019;-71
2024/02/21 10:46:00;;;;;;;;;;;;;;;;;;5049774;28;19933;-86
2024/02/21 10:48:27;;;;;;;;;;;;;;;;;;5047036;28;19929;-87
2024/02/21 10:50:54;;;;;;;;;;;;;;;;;;5048552;28;20023;-85
2024/02/21 10:53:24;;;;;;;;;;;;;;;;;;5049933;28;20206;-85
2024/02/21 10:55:51;;;;;;;;;;;;;;;;;;5036999;28;19935;-87
2024/02/21 10:58:19;;;;;;;;;;;;;;;;;;5045082;28;19984;-85
2024/02/21 11:00:46;;;;;;;;;;;;;;;;;;5051024;28;19939;-88
2024/02/21 11:03:13;;;;;;;;;;;;;;;;;;5049528;28;19929;-88
2024/02/21 11:05:42;;;;;;;;;;;;;;;;;;5047446;28;19992;-85
2024/02/21 11:08:09;;;;;;;;;;;;;;;;;;5051943;28;20350;-86
2024/02/21 11:10:40;;;;;;;;;;;;;;;;;;5038176;28;19960;-88
2024/02/21 11:13:08;;;;;;;;;;;;;;;;;;5046857;28;19932;-70
2024/02/21 11:15:35;;;;;;;;;;;;;;;;;;5055135;28;19928;-72
2024/02/21 11:18:02;;;;;;;;;;;;;;;;;;5047880;28;19929;-72
2024/02/21 11:20:29;;;;;;;;;;;;;;;;;;5035252;28;21618;-71
2024/02/21 11:22:56;;;;;;;;;;;;;;;;;;5029861;28;19933;-72
2024/02/21 11:25:23;;;;;;;;;;;;;;;;;;5042371;28;20406;-72
2024/02/21 11:27:50;;;;;;;;;;;;;;;;;;5028876;28;20020;-71
2024/02/21 11:30:22;;;;;;;;;;;;;;;;;;5035681;28;20351;-70
2024/02/21 11:32:49;;;;;;;;;;;;;;;;;;5036196;28;19976;-72
2024/02/21 11:35:16;;;;;;;;;;;;;;;;;;5033203;28;20420;-69
2024/02/21 11:37:45;;;;;;;;;;;;;;;;;;5029408;28;19989;-71
2024/02/21 11:40:12;;;;;;;;;;;;;;;;;;5032014;28;19954;-69
2024/02/21 11:42:39;;;;;;;;;;;;;;;;;;5037738;28;19944;-70
2024/02/21 11:45:06;;;;;;;;;;;;;;;;;;5039889;28;20410;-70
2024/02/21 11:47:33;;;;;;;;;;;;;;;;;;5038065;28;19929;-70
2024/02/21 11:50:00;;;;;;;;;;;;;;;;;;5033997;28;20344;-71
2024/02/21 11:52:27;;;;;;;;;;;;;;;;;;5037275;28;19928;-70
2024/02/21 11:54:56;;;;;;;;;;;;;;;;;;5037276;28;20019;-70
2024/02/21 11:57:23;;;;;;;;;;;;;;;;;;5038526;28;19929;-70
2024/02/21 11:59:51;;;;;;;;;;;;;;;;;;5037141;28;20116;-69
2024/02/21 12:02:18;;;;;;;;;;;;;;;;;;5034760;28;21033;-70
2024/02/21 12:04:45;;;;;;;;;;;;;;;;;;5036485;28;19929;-70
2024/02/21 12:07:12;;;;;;;;;;;;;;;;;;5038303;28;19959;-69
2024/02/21 12:09:39;;;;;;;;;;;;;;;;;;5031229;28;19929;-69
2024/02/21 12:12:06;;;;;;;;;;;;;;;;;;5038793;28;22124;-69
2024/02/21 12:14:33;;;;;;;;;;;;;;;;;;5036426;28;20306;-69
2024/02/21 12:17:00;;;;;;;;;;;;;;;;;;5043880;28;20024;-70
2024/02/21 12:19:27;;;;;;;;;;;;;;;;;;5042834;28;19974;-71
2024/02/21 12:21:54;;;;;;;;;;;;;;;;;;5042876;28;19929;-70
2024/02/21 12:24:21;;;;;;;;;;;;;;;;;;5035786;28;19935;-70
2024/02/21 12:26:48;;;;;;;;;;;;;;;;;;5033538;28;20032;-69
2024/02/21 12:29:15;;;;;;;;;;;;;;;;;;5043073;28;20292;-69
2024/02/21 12:31:42;;;;;;;;;;;;;;;;;;5037347;28;19929;-69
2024/02/21 12:34:10;;;;;;;;;;;;;;;;;;5040862;28;19933;-70
2024/02/21 12:36:37;;;;;;;;;;;;;;;;;;5041419;28;19972;-69
2024/02/21 12:39:04;;;;;;;;;;;;;;;;;;5044725;28;19929;-71
2024/02/21 12:41:33;;;;;;;;;;;;;;;;;;5042685;28;19936;-68
2024/02/21 12:44:00;;;;;;;;;;;;;;;;;;5038503;28;19935;-70
2024/02/21 12:46:27;;;;;;;;;;;;;;;;;;5040984;28;19933;-71
2024/02/21 12:48:54;;;;;;;;;;;;;;;;;;5040669;28;19972;-71
2024/02/21 12:51:21;;;;;;;;;;;;;;;;;;5036397;28;19952;-70
2024/02/21 12:53:49;;;;;;;;;;;;;;;;;;5044547;28;20403;-72
2024/02/21 12:56:16;;;;;;;;;;;;;;;;;;5035388;28;19936;-70
2024/02/21 12:58:44;;;;;;;;;;;;;;;;;;5040602;28;20312;-71
2024/02/21 13:01:11;;;;;;;;;;;;;;;;;;5034478;28;19933;-73
2024/02/21 13:03:38;;;;;;;;;;;;;;;;;;5035945;28;20019;-71
2024/02/21 13:06:05;;;;;;;;;;;;;;;;;;5043843;28;19936;-68
2024/02/21 13:08:34;;;;;;;;;;;;;;;;;;5047228;28;19935;-68
2024/02/21 13:11:01;;;;;;;;;;;;;;;;;;5045205;28;19940;-67
2024/02/21 13:13:28;;;;;;;;;;;;;;;;;;5040689;28;19929;-67
2024/02/21 13:15:55;;;;;;;;;;;;;;;;;;5036901;28;19950;-68
2024/02/21 13:18:22;;;;;;;;;;;;;;;;;;5043216;28;19928;-71
2024/02/21 13:20:49;;;;;;;;;;;;;;;;;;5037036;28;20019;-71
2024/02/21 13:23:16;;;;;;;;;;;;;;;;;;5040289;28;20015;-71
2024/02/21 13:25:44;;;;;;;;;;;;;;;;;;5035254;28;19972;-71
2024/02/21 13:28:11;;;;;;;;;;;;;;;;;;5033004;28;20037;-71
2024/02/21 13:30:38;;;;;;;;;;;;;;;;;;5039128;28;19929;-70
2024/02/21 13:33:05;;;;;;;;;;;;;;;;;;5034374;28;20320;-73
2024/02/21 13:35:32;;;;;;;;;;;;;;;;;;5030376;28;19929;-71
2024/02/21 13:38:00;;;;;;;;;;;;;;;;;;5036245;28;20031;-71
2024/02/21 13:40:27;;;;;;;;;;;;;;;;;;5047112;28;19995;-71
2024/02/21 13:42:54;;;;;;;;;;;;;;;;;;5039919;28;19929;-70
2024/02/21 13:45:21;;;;;;;;;;;;;;;;;;5042384;28;19937;-71
2024/02/21 13:47:48;;;;;;;;;;;;;;;;;;5041315;28;19941;-71
2024/02/21 13:50:15;;;;;;;;;;;;;;;;;;5039722;28;19937;-70
2024/02/21 13:52:42;;;;;;;;;;;;;;;;;;5041273;28;20491;-71
2024/02/21 13:55:09;;;;;;;;;;;;;;;;;;5042232;28;19990;-71
2024/02/21 13:57:36;;;;;;;;;;;;;;;;;;5039487;28;21774;-71
2024/02/21 14:00:04;;;;;;;;;;;;;;;;;;5040701;28;19936;-71
2024/02/21 14:02:31;;;;;;;;;;;;;;;;;;5046331;28;19928;-70
2024/02/21 14:04:58;;;;;;;;;;;;;;;;;;5040775;28;19935;-70
2024/02/21 14:07:25;;;;;;;;;;;;;;;;;;5045933;28;19979;-70
2024/02/21 14:09:52;;;;;;;;;;;;;;;;;;5046734;28;19929;-70
2024/02/21 14:12:23;;;;;;;;;;;;;;;;;;5033166;28;19940;-69
2024/02/21 14:14:51;;;;;;;;;;;;;;;;;;5036332;28;19929;-69
2024/02/21 14:17:20;;;;;;;;;;;;;;;;;;5038668;28;19994;-69
2024/02/21 14:19:47;;;;;;;;;;;;;;;;;;5035730;28;20490;-69
2024/02/21 14:22:13;;;;;;;;;;;;;;;;;;5039541;28;20015;-69
2024/02/21 14:24:41;;;;;;;;;;;;;;;;;;5042934;28;19935;-69
2024/02/21 14:27:08;;;;;;;;;;;;;;;;;;5039024;28;19933;-70
2024/02/21 14:29:36;;;;;;;;;;;;;;;;;;5038825;28;19988;-69
2024/02/21 14:32:03;;;;;;;;;;;;;;;;;;5042867;28;20388;-70
2024/02/21 14:34:30;;;;;;;;;;;;;;;;;;5041128;28;19932;-70
2024/02/21 14:36:57;;;;;;;;;;;;;;;;;;5033926;28;19944;-70
2024/02/21 14:39:24;;;;;;;;;;;;;;;;;;5037985;28;19929;-69
2024/02/21 14:41:51;;;;;;;;;;;;;;;;;;5037918;28;19929;-71
2024/02/21 14:44:18;;;;;;;;;;;;;;;;;;5038667;28;19952;-69
2024/02/21 14:46:45;;;;;;;;;;;;;;;;;;5037798;28;19935;-70
2024/02/21 14:49:12;;;;;;;;;;;;;;;;;;5043686;28;19932;-70
2024/02/21 14:51:39;;;;;;;;;;;;;;;;;;5042411;28;19933;-69
2024/02/21 14:54:06;;;;;;;;;;;;;;;;;;5034128;28;19983;-69
2024/02/21 14:56:33;;;;;;;;;;;;;;;;;;5046808;28;20016;-70
2024/02/21 14:59:00;;;;;;;;;;;;;;;;;;5039232;28;20012;-70
2024/02/21 15:01:27;;;;;;;;;;;;;;;;;;5046388;28;20494;-69
2024/02/21 15:03:54;;;;;;;;;;;;;;;;;;5043554;28;19928;-70
2024/02/21 15:06:21;;;;;;;;;;;;;;;;;;5050628;28;19929;-69
2024/02/21 15:08:49;;;;;;;;;;;;;;;;;;5047102;28;19932;-69
2024/02/21 15:11:17;;;;;;;;;;;;;;;;;;5044394;28;19929;-70
2024/02/21 15:13:45;;;;;;;;;;;;;;;;;;5040358;28;19928;-69
2024/02/21 15:16:16;;;;;;;;;;;;;;;;;;5045053;28;20650;-70
2024/02/21 15:18:43;;;;;;;;;;;;;;;;;;5040182;28;20007;-70
2024/02/21 15:21:13;;;;;;;;;;;;;;;;;;5045257;28;20438;-70
2024/02/21 15:23:40;;;;;;;;;;;;;;;;;;5040995;28;20269;-69
2024/02/21 15:26:07;;;;;;;;;;;;;;;;;;5039543;28;19939;-69
2024/02/21 15:28:34;;;;;;;;;;;;;;;;;;5038597;28;20055;-69
2024/02/21 15:31:03;;;;;;;;;;;;;;;;;;5042518;28;19982;-69
2024/02/21 15:33:30;;;;;;;;;;;;;;;;;;5044204;28;19998;-68
2024/02/21 15:35:57;;;;;;;;;;;;;;;;;;5037353;28;20205;-68
2024/02/21 15:38:25;;;;;;;;;;;;;;;;;;5035376;28;20070;-70
2024/02/21 15:40:52;;;;;;;;;;;;;;;;;;5045927;28;19933;-70
2024/02/21 15:43:19;;;;;;;;;;;;;;;;;;5038193;28;19933;-69
2024/02/21 15:45:46;;;;;;;;;;;;;;;;;;5045378;28;20016;-70
2024/02/21 15:48:14;;;;;;;;;;;;;;;;;;5041844;28;20587;-70
2024/02/21 15:50:41;;;;;;;;;;;;;;;;;;5033755;28;19937;-70
2024/02/21 15:53:08;;;;;;;;;;;;;;;;;;5040786;28;19935;-72
2024/02/21 15:55:35;;;;;;;;;;;;;;;;;;5045550;28;20406;-70
2024/02/21 15:58:04;;;;;;;;;;;;;;;;;;5038350;28;19974;-69
2024/02/21 16:00:33;;;;;;;;;;;;;;;;;;5046942;28;19929;-69
2024/02/21 16:03:00;;;;;;;;;;;;;;;;;;5036819;28;19978;-70
2024/02/21 16:05:27;;;;;;;;;;;;;;;;;;5038890;28;20042;-69
2024/02/21 16:07:54;;;;;;;;;;;;;;;;;;5040048;28;19968;-71
2024/02/21 16:10:21;;;;;;;;;;;;;;;;;;5047533;28;21749;-71
2024/02/21 16:12:50;;;;;;;;;;;;;;;;;;5041623;28;19933;-70
2024/02/21 16:15:18;;;;;;;;;;;;;;;;;;5044630;28;19968;-71
2024/02/21 16:17:45;;;;;;;;;;;;;;;;;;5039201;28;20418;-73
2024/02/21 16:20:15;;;;;;;;;;;;;;;;;;5041609;28;20047;-73
2024/02/21 16:22:42;;;;;;;;;;;;;;;;;;5036986;28;19929;-73
2024/02/21 16:25:09;;;;;;;;;;;;;;;;;;5036435;28;20019;-73
2024/02/21 16:27:37;;;;;;;;;;;;;;;;;;5041957;28;19935;-72
2024/02/21 16:30:05;;;;;;;;;;;;;;;;;;5042055;28;19987;-72
2024/02/21 16:32:34;;;;;;;;;;;;;;;;;;5044766;28;19974;-71
2024/02/21 16:35:01;;;;;;;;;;;;;;;;;;5042760;28;19929;-72
2024/02/21 16:37:28;;;;;;;;;;;;;;;;;;5041062;28;19933;-73
2024/02/21 16:39:55;;;;;;;;;;;;;;;;;;5044372;28;20043;-71
2024/02/21 16:42:22;;;;;;;;;;;;;;;;;;5046749;28;20356;-72
2024/02/21 16:44:50;;;;;;;;;;;;;;;;;;5054708;28;20004;-73